createdAt,value
2019-01-09T00:01:30.369Z,4.80
2019-01-09T00:04:01.015Z,7.57
2019-01-09T00:06:31.704Z,5.90
2019-01-09T00:09:02.371Z,5.03
2019-01-09T00:11:33.020Z,6.63
2019-01-09T00:14:03.719Z,9.33
2019-01-09T00:16:34.479Z,12.40
2019-01-09T00:19:05.097Z,7.97
2019-01-09T00:21:35.848Z,15.97
2019-01-09T00:24:06.597Z,6.33
2019-01-09T00:26:37.277Z,7.67
2019-01-09T00:29:07.949Z,11.27
2019-01-09T00:31:38.639Z,8.43
2019-01-09T00:34:09.186Z,10.40
2019-01-09T00:36:39.867Z,9.17
2019-01-09T00:39:10.588Z,6.40
2019-01-09T00:41:41.130Z,6.20
2019-01-09T00:44:11.829Z,6.73
2019-01-09T00:46:42.938Z,5.87
2019-01-09T00:49:13.538Z,7.00
2019-01-09T00:51:44.123Z,5.80
2019-01-09T00:54:15.038Z,7.13
2019-01-09T00:56:45.658Z,6.60
2019-01-09T00:59:16.158Z,7.00
2019-01-09T01:02:01.149Z,6.10
2019-01-09T01:05:29.121Z,4.63
2019-01-09T01:08:44.788Z,7.30
2019-01-09T01:12:12.758Z,4.77
2019-01-09T01:15:40.698Z,3.13
2019-01-09T01:18:58.268Z,7.10
2019-01-09T01:21:39.543Z,14.90
2019-01-09T01:24:59.013Z,8.63
2019-01-09T01:28:10.736Z,8.27
2019-01-09T01:31:31.283Z,5.50
2019-01-09T01:34:46.801Z,6.10
2019-01-09T01:38:11.439Z,6.90
2019-01-09T01:41:29.608Z,7.80
2019-01-09T01:44:34.618Z,6.87
2019-01-09T01:47:47.375Z,5.63
2019-01-09T01:50:54.921Z,7.60
2019-01-09T01:54:22.808Z,8.20
2019-01-09T01:57:46.607Z,8.30
2019-01-09T02:00:31.828Z,19.63
2019-01-09T02:03:59.839Z,13.63
2019-01-09T02:07:23.586Z,10.80
2019-01-09T02:10:51.610Z,8.33
2019-01-09T02:13:50.618Z,6.70
2019-01-09T02:17:18.619Z,6.30
2019-01-09T02:20:17.519Z,7.57
2019-01-09T02:23:33.608Z,8.13
2019-01-09T02:26:22.298Z,6.63
2019-01-09T02:29:32.868Z,9.47
2019-01-09T02:32:31.068Z,7.47
2019-01-09T02:35:01.749Z,8.67
2019-01-09T02:37:32.487Z,8.83
2019-01-09T02:40:03.148Z,6.90
2019-01-09T02:42:33.671Z,8.30
2019-01-09T02:45:04.282Z,8.40
2019-01-09T02:47:34.888Z,8.13
2019-01-09T02:50:06.388Z,8.53
2019-01-09T02:52:36.969Z,7.40
2019-01-09T02:55:08.862Z,8.53
2019-01-09T02:57:39.506Z,10.10
2019-01-09T03:00:13.233Z,10.23
2019-01-09T03:02:44.267Z,10.83
2019-01-09T03:05:15.267Z,8.57
2019-01-09T03:07:45.932Z,10.03
2019-01-09T03:10:16.580Z,8.27
2019-01-09T03:12:47.100Z,8.77
2019-01-09T03:15:17.689Z,6.57
2019-01-09T03:17:48.173Z,11.20
2019-01-09T03:20:18.849Z,8.50
2019-01-09T03:22:49.378Z,7.67
2019-01-09T03:25:19.874Z,12.93
2019-01-09T03:27:50.528Z,8.30
2019-01-09T03:30:21.152Z,7.93
2019-01-09T03:32:51.740Z,9.47
2019-01-09T03:35:22.303Z,8.37
2019-01-09T03:37:52.911Z,13.13
2019-01-09T03:40:23.838Z,10.83
2019-01-09T03:42:54.568Z,12.37
2019-01-09T03:45:25.178Z,13.90
2019-01-09T03:47:55.702Z,15.20
2019-01-09T03:50:26.299Z,28.07
2019-01-09T03:52:56.656Z,21.40
2019-01-09T03:55:27.161Z,22.97
2019-01-09T03:57:57.780Z,18.20
2019-01-09T04:00:28.298Z,18.27
2019-01-09T04:02:58.804Z,12.10
2019-01-09T04:05:29.421Z,12.83
2019-01-09T04:08:00.012Z,14.37
2019-01-09T04:10:30.754Z,16.77
2019-01-09T04:13:01.350Z,15.10
2019-01-09T04:15:31.879Z,15.13
2019-01-09T04:18:02.349Z,16.20
2019-01-09T04:20:32.863Z,12.87
2019-01-09T04:23:03.442Z,12.43
2019-01-09T04:25:34.021Z,12.00
2019-01-09T04:28:04.721Z,12.37
2019-01-09T04:30:35.939Z,11.27
2019-01-09T04:33:06.520Z,10.20
2019-01-09T04:35:37.075Z,10.33
2019-01-09T04:38:07.738Z,8.23
2019-01-09T04:40:38.271Z,11.70
2019-01-09T04:43:08.879Z,11.57
2019-01-09T04:45:39.529Z,14.73
2019-01-09T04:48:10.117Z,12.50
2019-01-09T04:50:40.784Z,10.13
2019-01-09T04:53:11.327Z,10.20
2019-01-09T04:55:42.020Z,9.23
2019-01-09T04:58:12.997Z,8.67
2019-01-09T05:00:43.668Z,8.43
2019-01-09T05:03:14.152Z,8.17
2019-01-09T05:05:45.035Z,6.67
2019-01-09T05:08:15.608Z,6.40
2019-01-09T05:10:46.244Z,7.07
2019-01-09T05:13:16.778Z,8.77
2019-01-09T05:15:47.498Z,7.43
2019-01-09T05:18:18.035Z,9.60
2019-01-09T05:20:48.724Z,8.13
2019-01-09T05:23:19.568Z,6.70
2019-01-09T05:25:50.347Z,8.80
2019-01-09T05:28:21.113Z,9.30
2019-01-09T05:30:51.790Z,7.70
2019-01-09T05:33:22.459Z,8.93
2019-01-09T05:35:53.056Z,12.13
2019-01-09T05:38:23.659Z,9.10
2019-01-09T05:40:54.139Z,8.43
2019-01-09T05:43:24.780Z,11.63
2019-01-09T05:45:55.382Z,10.63
2019-01-09T05:48:25.877Z,11.33
2019-01-09T05:50:56.562Z,10.97
2019-01-09T05:53:27.230Z,11.23
2019-01-09T05:55:57.847Z,9.60
2019-01-09T05:58:28.649Z,11.47
2019-01-09T06:00:59.264Z,7.40
2019-01-09T06:03:29.811Z,8.90
2019-01-09T06:06:00.429Z,10.60
2019-01-09T06:08:31.427Z,13.40
2019-01-09T06:11:02.152Z,13.40
2019-01-09T06:13:32.874Z,18.83
2019-01-09T06:16:03.579Z,14.73
2019-01-09T06:18:34.214Z,12.87
2019-01-09T06:21:05.278Z,14.53
2019-01-09T06:23:36.066Z,12.63
2019-01-09T06:26:06.844Z,12.37
2019-01-09T06:28:37.616Z,11.90
2019-01-09T06:31:08.302Z,12.90
2019-01-09T06:33:38.946Z,11.73
2019-01-09T06:36:09.617Z,12.40
2019-01-09T06:38:40.372Z,10.53
2019-01-09T06:41:11.112Z,13.47
2019-01-09T06:43:41.830Z,12.60
2019-01-09T06:46:12.605Z,15.30
2019-01-09T06:48:43.470Z,13.83
2019-01-09T06:51:14.418Z,13.20
2019-01-09T06:53:45.251Z,11.10
2019-01-09T06:56:15.814Z,10.80
2019-01-09T06:58:46.618Z,14.03
2019-01-09T07:01:17.385Z,11.63
2019-01-09T07:03:47.997Z,13.50
2019-01-09T07:06:18.970Z,10.20
2019-01-09T07:08:49.669Z,10.57
2019-01-09T07:11:20.448Z,14.40
2019-01-09T07:13:51.099Z,17.63
2019-01-09T07:16:21.764Z,16.53
2019-01-09T07:18:52.439Z,14.10
2019-01-09T07:21:23.064Z,18.20
2019-01-09T07:23:53.753Z,16.30
2019-01-09T07:26:24.468Z,19.10
2019-01-09T07:28:55.232Z,15.60
2019-01-09T07:31:25.951Z,18.30
2019-01-09T07:33:56.636Z,19.73
2019-01-09T07:36:27.590Z,19.60
2019-01-09T07:38:58.282Z,19.90
2019-01-09T07:41:28.929Z,23.47
2019-01-09T07:43:59.738Z,17.20
2019-01-09T07:46:30.466Z,20.33
2019-01-09T07:49:01.523Z,18.73
2019-01-09T07:51:32.321Z,16.23
2019-01-09T07:54:02.984Z,17.77
2019-01-09T07:56:33.787Z,16.83
2019-01-09T07:59:04.763Z,17.47
2019-01-09T08:01:35.580Z,19.90
2019-01-09T08:04:06.259Z,18.07
2019-01-09T08:06:36.948Z,17.20
2019-01-09T08:09:08.854Z,18.50
2019-01-09T08:11:39.789Z,21.10
2019-01-09T08:14:10.478Z,20.23
2019-01-09T08:16:41.175Z,19.23
2019-01-09T08:19:11.764Z,18.77
2019-01-09T08:21:42.369Z,18.80
2019-01-09T08:24:13.080Z,21.00
2019-01-09T08:26:43.799Z,19.33
2019-01-09T08:29:14.503Z,18.83
2019-01-09T08:31:45.199Z,20.20
2019-01-09T08:34:15.807Z,18.30
2019-01-09T08:36:46.523Z,23.50
2019-01-09T08:39:17.208Z,16.03
2019-01-09T08:41:47.926Z,21.33
2019-01-09T08:44:18.603Z,22.17
2019-01-09T08:46:49.481Z,21.50
2019-01-09T08:49:21.023Z,26.60
2019-01-09T08:51:51.728Z,28.43
2019-01-09T08:54:22.388Z,28.93
2019-01-09T08:56:52.973Z,30.67
2019-01-09T08:59:23.603Z,27.87
2019-01-09T09:01:54.208Z,26.33
2019-01-09T09:04:24.767Z,25.17
2019-01-09T09:06:55.603Z,28.83
2019-01-09T09:09:27.920Z,22.27
2019-01-09T09:11:58.623Z,25.07
2019-01-09T09:14:29.283Z,19.70
2019-01-09T09:16:59.816Z,19.77
2019-01-09T09:19:30.325Z,20.20
2019-01-09T09:22:00.987Z,20.27
2019-01-09T09:24:31.621Z,18.23
2019-01-09T09:27:02.209Z,20.17
2019-01-09T09:29:32.851Z,20.87
2019-01-09T09:32:03.739Z,19.13
2019-01-09T09:34:34.604Z,21.40
2019-01-09T09:37:05.248Z,22.47
2019-01-09T09:39:35.918Z,20.90
2019-01-09T09:42:06.660Z,21.73
2019-01-09T09:44:37.328Z,19.00
2019-01-09T09:47:07.929Z,20.60
2019-01-09T09:49:38.615Z,23.60
2019-01-09T09:52:09.373Z,20.63
2019-01-09T09:54:39.968Z,21.17
2019-01-09T09:57:10.713Z,19.37
2019-01-09T09:59:41.235Z,19.90
2019-01-09T10:02:11.901Z,21.87
2019-01-09T10:04:42.529Z,25.67
2019-01-09T10:07:13.006Z,22.60
2019-01-09T10:09:43.604Z,13.83
2019-01-09T10:12:14.207Z,12.17
2019-01-09T10:14:44.816Z,15.90
2019-01-09T10:17:15.449Z,11.00
2019-01-09T10:19:46.273Z,9.73
2019-01-09T10:22:17.401Z,14.47
2019-01-09T10:24:48.010Z,14.63
2019-01-09T10:27:18.562Z,9.63
2019-01-09T10:29:49.249Z,8.50
2019-01-09T10:32:19.952Z,7.77
2019-01-09T10:34:50.588Z,9.33
2019-01-09T10:37:21.366Z,8.67
2019-01-09T10:39:51.968Z,7.33
2019-01-09T10:42:22.579Z,6.97
2019-01-09T10:44:53.191Z,7.23
2019-01-09T10:47:23.903Z,7.03
2019-01-09T10:49:54.551Z,6.90
2019-01-09T10:52:25.232Z,8.10
2019-01-09T10:54:55.830Z,7.47
2019-01-09T10:57:26.596Z,8.03
2019-01-09T10:59:57.224Z,10.60
2019-01-09T11:02:28.140Z,6.67
2019-01-09T11:04:58.987Z,6.10
2019-01-09T11:07:29.538Z,6.60
2019-01-09T11:10:00.271Z,5.80
2019-01-09T11:12:30.796Z,8.10
2019-01-09T11:15:01.439Z,10.20
2019-01-09T11:17:32.113Z,8.87
2019-01-09T11:20:02.811Z,13.07
2019-01-09T11:22:33.434Z,7.43
2019-01-09T11:25:04.220Z,5.20
2019-01-09T11:27:34.998Z,8.33
2019-01-09T11:30:08.079Z,6.40
2019-01-09T11:32:38.827Z,4.50
2019-01-09T11:35:11.117Z,5.60
2019-01-09T11:37:41.811Z,6.40
2019-01-09T11:40:14.378Z,5.53
2019-01-09T11:42:45.310Z,19.60
2019-01-09T11:45:17.843Z,16.00
2019-01-09T11:47:49.288Z,16.60
2019-01-09T11:50:20.004Z,7.43
2019-01-09T11:52:50.651Z,6.13
2019-01-09T11:55:21.303Z,3.73
2019-01-09T11:57:51.932Z,5.87
2019-01-09T12:00:29.527Z,4.67
2019-01-09T12:03:00.289Z,4.57
2019-01-09T12:05:31.002Z,4.63
2019-01-09T12:08:01.651Z,5.27
2019-01-09T12:10:32.174Z,4.30
2019-01-09T12:13:02.740Z,5.27
2019-01-09T12:15:33.506Z,6.53
2019-01-09T12:18:03.994Z,4.73
2019-01-09T12:20:34.602Z,6.43
2019-01-09T12:23:05.428Z,10.67
2019-01-09T12:25:36.347Z,12.30
2019-01-09T12:28:07.180Z,17.60
2019-01-09T12:30:37.858Z,18.93
2019-01-09T12:33:08.338Z,15.63
2019-01-09T12:35:39.037Z,8.47
2019-01-09T12:38:09.718Z,7.10
2019-01-09T12:40:40.530Z,15.57
2019-01-09T12:43:11.140Z,7.80
2019-01-09T12:45:42.137Z,7.10
2019-01-09T12:48:12.853Z,6.90
2019-01-09T12:50:43.484Z,11.53
2019-01-09T12:53:14.263Z,10.17
2019-01-09T12:55:45.388Z,7.60
2019-01-09T12:58:16.367Z,9.20
2019-01-09T13:00:47.128Z,13.67
2019-01-09T13:03:17.862Z,28.47
2019-01-09T13:05:48.722Z,36.00
2019-01-09T13:08:19.541Z,29.63
2019-01-09T13:10:50.331Z,31.83
2019-01-09T13:13:21.037Z,23.13
2019-01-09T13:15:51.811Z,15.27
2019-01-09T13:18:22.893Z,9.43
2019-01-09T13:20:53.700Z,9.43
2019-01-09T13:23:24.318Z,7.47
2019-01-09T13:25:54.922Z,8.47
2019-01-09T13:28:25.642Z,8.30
2019-01-09T13:30:56.275Z,8.23
2019-01-09T13:33:26.945Z,11.10
2019-01-09T13:35:57.925Z,10.40
2019-01-09T13:38:29.253Z,10.17
2019-01-09T13:41:00.019Z,14.67
2019-01-09T13:43:30.669Z,9.70
2019-01-09T13:46:01.865Z,7.53
2019-01-09T13:48:32.551Z,13.07
2019-01-09T13:51:03.334Z,7.73
2019-01-09T13:53:34.054Z,8.93
2019-01-09T13:56:05.074Z,8.43
2019-01-09T13:58:35.812Z,9.60
2019-01-09T14:01:07.022Z,11.43
2019-01-09T14:03:38.569Z,9.47
2019-01-09T14:06:09.678Z,8.27
2019-01-09T14:08:40.408Z,7.90
2019-01-09T14:11:11.154Z,7.63
2019-01-09T14:13:42.199Z,13.30
2019-01-09T14:16:13.160Z,13.17
2019-01-09T14:18:43.862Z,17.23
2019-01-09T14:21:14.550Z,17.63
2019-01-09T14:23:45.436Z,18.67
2019-01-09T14:26:16.235Z,23.73
2019-01-09T14:28:47.224Z,25.13
2019-01-09T14:31:17.866Z,26.93
2019-01-09T14:33:48.478Z,34.30
2019-01-09T14:36:19.195Z,31.97
2019-01-09T14:38:49.750Z,33.63
2019-01-09T14:41:20.581Z,26.93
2019-01-09T14:43:51.350Z,36.87
2019-01-09T14:46:22.313Z,46.77
2019-01-09T14:48:52.952Z,45.17
2019-01-09T14:51:23.962Z,37.60
2019-01-09T14:53:54.634Z,40.40
2019-01-09T14:56:25.188Z,37.73
2019-01-09T14:58:55.858Z,33.63
2019-01-09T15:01:26.685Z,30.57
2019-01-09T15:03:57.578Z,26.73
2019-01-09T15:06:28.302Z,23.17
2019-01-09T15:08:58.908Z,29.97
2019-01-09T15:11:31.462Z,26.33
2019-01-09T15:14:02.170Z,28.07
2019-01-09T15:16:32.824Z,28.77
2019-01-09T15:19:03.542Z,32.87
2019-01-09T15:21:34.243Z,29.93
2019-01-09T15:24:08.526Z,29.13
2019-01-09T15:26:37.527Z,28.37
2019-01-09T15:29:08.295Z,23.87
2019-01-09T15:31:38.950Z,25.93
2019-01-09T15:34:09.623Z,24.18
2019-01-09T15:36:40.693Z,18.47
2019-01-09T15:39:11.340Z,18.73
2019-01-09T15:41:42.823Z,18.60
2019-01-09T15:44:13.921Z,22.97
2019-01-09T15:46:44.612Z,24.50
2019-01-09T15:49:15.307Z,24.43
2019-01-09T15:51:45.952Z,20.70
2019-01-09T15:54:16.748Z,18.63
2019-01-09T15:56:47.427Z,16.30
2019-01-09T15:59:18.099Z,15.23
2019-01-09T16:01:48.886Z,14.37
2019-01-09T16:04:19.569Z,14.83
2019-01-09T16:06:50.165Z,17.73
2019-01-09T16:09:20.950Z,18.87
2019-01-09T16:11:51.678Z,17.40
2019-01-09T16:14:22.420Z,20.23
2019-01-09T16:16:53.097Z,17.37
2019-01-09T16:19:23.719Z,17.00
2019-01-09T16:21:54.544Z,19.60
2019-01-09T16:24:25.243Z,24.57
2019-01-09T16:26:55.887Z,20.97
2019-01-09T16:29:26.771Z,21.17
2019-01-09T16:31:57.344Z,19.57
2019-01-09T16:34:28.068Z,22.10
2019-01-09T16:36:58.869Z,27.27
2019-01-09T16:39:31.296Z,25.20
2019-01-09T16:42:02.153Z,24.30
2019-01-09T16:44:33.047Z,28.87
2019-01-09T16:47:03.759Z,25.13
2019-01-09T16:49:34.728Z,32.50
2019-01-09T16:52:06.510Z,32.07
2019-01-09T16:54:37.258Z,36.50
2019-01-09T16:57:09.129Z,30.37
2019-01-09T16:59:40.109Z,27.97
2019-01-09T17:02:10.930Z,32.50
2019-01-09T17:04:41.724Z,29.53
2019-01-09T17:07:12.519Z,30.60
2019-01-09T17:09:43.288Z,32.93
2019-01-09T17:12:13.975Z,25.03
2019-01-09T17:14:44.789Z,31.10
2019-01-09T17:17:15.522Z,33.70
2019-01-09T17:19:47.307Z,36.07
2019-01-09T17:22:18.056Z,30.90
2019-01-09T17:24:49.186Z,40.60
2019-01-09T17:27:19.952Z,43.63
2019-01-09T17:29:50.659Z,37.00
2019-01-09T17:32:21.848Z,42.97
2019-01-09T17:34:52.668Z,45.70
2019-01-09T17:37:24.242Z,38.50
2019-01-09T17:39:56.308Z,40.47
2019-01-09T17:42:27.058Z,44.13
2019-01-09T17:44:58.058Z,44.73
2019-01-09T17:47:28.993Z,39.37
2019-01-09T17:49:59.618Z,44.30
2019-01-09T17:52:30.318Z,43.90
2019-01-09T17:55:01.056Z,41.77
2019-01-09T17:57:31.688Z,45.53
2019-01-09T18:00:02.509Z,51.73
2019-01-09T18:02:35.578Z,52.20
2019-01-09T18:05:07.384Z,51.93
2019-01-09T18:07:38.146Z,54.33
2019-01-09T18:10:14.946Z,46.97
2019-01-09T18:12:46.227Z,57.50
2019-01-09T18:15:20.850Z,54.03
2019-01-09T18:17:51.893Z,55.30
2019-01-09T18:20:22.854Z,56.47
2019-01-09T18:22:53.739Z,55.63
2019-01-09T18:25:27.139Z,62.10
2019-01-09T18:27:59.232Z,56.80
2019-01-09T18:30:42.422Z,68.47
2019-01-09T18:33:29.743Z,56.93
2019-01-09T18:36:25.550Z,62.03
2019-01-09T18:39:39.944Z,61.47
2019-01-09T18:43:02.725Z,55.63
2019-01-09T18:46:25.156Z,57.13
2019-01-09T18:49:24.210Z,60.60
2019-01-09T18:52:33.157Z,54.97
2019-01-09T18:55:08.210Z,53.57
2019-01-09T18:57:39.028Z,54.50
2019-01-09T19:00:21.799Z,50.47
2019-01-09T19:02:58.376Z,51.70
2019-01-09T19:05:31.349Z,44.13
2019-01-09T19:08:05.542Z,50.63
2019-01-09T19:10:38.621Z,68.10
2019-01-09T19:13:10.332Z,64.90
2019-01-09T19:15:41.192Z,63.10
2019-01-09T19:18:13.070Z,73.20
2019-01-09T19:20:46.415Z,71.50
2019-01-09T19:23:18.337Z,67.43
2019-01-09T19:25:50.519Z,68.80
2019-01-09T19:28:28.952Z,77.13
2019-01-09T19:31:02.159Z,70.30
2019-01-09T19:33:33.263Z,58.63
2019-01-09T19:36:08.472Z,76.83
2019-01-09T19:38:42.889Z,66.97
2019-01-09T19:41:19.168Z,73.17
2019-01-09T19:43:50.178Z,64.63
2019-01-09T19:46:22.249Z,65.07
2019-01-09T19:48:58.408Z,73.87
2019-01-09T19:51:32.599Z,79.13
2019-01-09T19:54:03.545Z,74.20
2019-01-09T19:56:36.337Z,71.20
2019-01-09T19:59:09.532Z,79.30
2019-01-09T20:01:43.501Z,92.10
2019-01-09T20:04:17.312Z,88.50
2019-01-09T20:06:49.164Z,89.73
2019-01-09T20:09:22.247Z,108.23
2019-01-09T20:11:56.048Z,122.10
2019-01-09T20:14:31.683Z,150.53
2019-01-09T20:17:08.868Z,154.27
2019-01-09T20:19:43.443Z,152.27
2019-01-09T20:22:19.048Z,181.87
2019-01-09T20:24:50.173Z,186.70
2019-01-09T20:27:24.990Z,206.70
2019-01-09T20:29:58.221Z,199.27
2019-01-09T20:32:30.347Z,206.70
2019-01-09T20:35:01.613Z,226.97
2019-01-09T20:37:32.828Z,209.83
2019-01-09T20:40:04.433Z,219.77
2019-01-09T20:42:37.851Z,193.43
2019-01-09T20:45:11.550Z,198.23
2019-01-09T20:47:44.821Z,183.07
2019-01-09T20:50:23.132Z,189.90
2019-01-09T20:52:55.139Z,147.23
2019-01-09T20:55:28.114Z,150.17
2019-01-09T20:58:01.218Z,153.10
2019-01-09T21:00:35.478Z,160.13
2019-01-09T21:03:11.529Z,161.13
2019-01-09T21:05:48.514Z,177.63
2019-01-09T21:08:21.758Z,185.10
2019-01-09T21:10:53.758Z,196.83
2019-01-09T21:13:24.583Z,215.13
2019-01-09T21:16:01.399Z,192.33
2019-01-09T21:18:35.803Z,167.17
2019-01-09T21:21:08.324Z,167.97
2019-01-09T21:23:38.955Z,177.70
2019-01-09T21:26:09.708Z,124.60
2019-01-09T21:28:41.938Z,91.30
2019-01-09T21:31:12.766Z,152.03
2019-01-09T21:33:43.751Z,135.17
2019-01-09T21:36:15.471Z,106.33
2019-01-09T21:38:46.103Z,115.70
2019-01-09T21:41:16.598Z,153.20
2019-01-09T21:43:48.652Z,139.57
2019-01-09T21:46:19.228Z,167.70
2019-01-09T21:48:49.921Z,192.37
2019-01-09T21:51:20.454Z,173.40
2019-01-09T21:53:51.088Z,186.07
2019-01-09T21:56:21.828Z,170.97
2019-01-09T21:58:52.463Z,183.83
2019-01-09T22:01:23.136Z,155.77
2019-01-09T22:03:53.761Z,174.67
2019-01-09T22:06:24.389Z,173.47
2019-01-09T22:08:55.058Z,182.33
2019-01-09T22:11:25.729Z,184.33
2019-01-09T22:13:56.356Z,182.50
2019-01-09T22:16:27.093Z,189.50
2019-01-09T22:18:57.730Z,183.63
2019-01-09T22:21:28.603Z,164.83
2019-01-09T22:23:59.309Z,163.60
2019-01-09T22:26:30.052Z,182.10
2019-01-09T22:29:00.832Z,179.40
2019-01-09T22:31:31.371Z,182.23
2019-01-09T22:34:01.872Z,172.60
2019-01-09T22:36:32.613Z,187.93
2019-01-09T22:39:03.377Z,243.87
2019-01-09T22:41:34.070Z,271.90
2019-01-09T22:44:05.551Z,337.17
2019-01-09T22:46:36.433Z,375.97
2019-01-09T22:49:07.413Z,454.73
2019-01-09T22:51:38.399Z,461.97
2019-01-09T22:54:09.007Z,485.50
2019-01-09T22:56:39.515Z,511.87
2019-01-09T22:59:10.128Z,503.03
2019-01-09T23:01:41.043Z,514.57
2019-01-09T23:04:11.912Z,521.13
2019-01-09T23:06:42.835Z,559.73
2019-01-09T23:09:13.717Z,496.87
2019-01-09T23:11:44.548Z,463.23
2019-01-09T23:14:15.451Z,500.53
2019-01-09T23:16:46.215Z,501.83
2019-01-09T23:19:17.079Z,501.73
2019-01-09T23:21:47.769Z,434.23
2019-01-09T23:24:18.460Z,421.27
2019-01-09T23:26:49.229Z,408.67
2019-01-09T23:29:20.275Z,310.73
2019-01-09T23:31:50.833Z,398.47
2019-01-09T23:34:21.492Z,342.53
2019-01-09T23:36:52.285Z,310.37
2019-01-09T23:39:23.129Z,278.80
2019-01-09T23:41:53.868Z,281.40
2019-01-09T23:44:24.443Z,268.47
2019-01-09T23:46:55.057Z,234.10
2019-01-09T23:49:25.663Z,237.60
2019-01-09T23:51:56.271Z,238.07
2019-01-09T23:54:26.843Z,242.83
2019-01-09T23:56:57.389Z,247.53
2019-01-09T23:59:28.083Z,229.90
